Time;durP1;ratioP1;P1;durP2;ratioP2;P2;SDS_P1;SDS_P2;PMS_P1;PMS_P2;Temp;Humidity;BMP_temperature;BMP_pressure;BME280_temperature;BME280_humidity;BME280_pressure;Samples;Min_cycle;Max_cycle;Signal;HPM_P1;HPM_P2
2022/09/10 00:00:39;;;;;;;20.85;13.18;;;15.10;99.90;;;;;;5051825;28;20491;-76
2022/09/10 00:03:05;;;;;;;20.42;12.90;;;15.20;99.90;;;;;;5051002;28;20049;-77
2022/09/10 00:05:42;;;;;;;19.98;13.50;;;14.90;99.90;;;;;;5051158;28;20079;-75
2022/09/10 00:08:09;;;;;;;20.85;13.88;;;15.10;99.90;;;;;;5052472;28;20137;-76
2022/09/10 00:10:46;;;;;;;21.38;12.80;;;15.00;99.90;;;;;;5052255;28;20074;-75
2022/09/10 00:13:17;;;;;;;18.92;13.35;;;15.00;99.90;;;;;;5051925;28;20473;-73
2022/09/10 00:15:53;;;;;;;21.40;14.75;;;15.20;99.90;;;;;;5051931;28;20049;-75
2022/09/10 00:18:21;;;;;;;22.87;14.53;;;15.10;99.90;;;;;;5052176;28;20080;-74
2022/09/10 00:20:49;;;;;;;20.27;14.48;;;15.10;99.90;;;;;;5052076;28;20283;-75
2022/09/10 00:23:24;;;;;;;26.42;15.02;;;15.30;99.90;;;;;;5051124;28;20475;-76
2022/09/10 00:25:52;;;;;;;25.38;15.60;;;15.50;99.90;;;;;;5052172;28;20084;-76
2022/09/10 00:28:20;;;;;;;28.00;16.20;;;15.60;99.90;;;;;;5052017;28;20052;-77
2022/09/10 00:30:47;;;;;;;22.15;16.67;;;15.20;99.90;;;;;;5051560;28;20090;-77
2022/09/10 00:33:18;;;;;;;27.00;17.50;;;15.40;99.90;;;;;;5051605;28;20087;-76
2022/09/10 00:35:44;;;;;;;27.30;17.02;;;15.40;99.90;;;;;;5050716;28;20111;-75
2022/09/10 00:38:11;;;;;;;28.00;18.63;;;15.40;99.90;;;;;;5051710;28;20057;-76
2022/09/10 00:40:38;;;;;;;32.97;18.85;;;15.10;99.90;;;;;;5051905;28;20064;-76
2022/09/10 00:43:14;;;;;;;33.53;19.40;;;15.50;99.90;;;;;;5051959;28;20531;-76
2022/09/10 00:45:42;;;;;;;31.23;19.98;;;15.00;99.90;;;;;;5051562;28;20055;-77
2022/09/10 00:48:23;;;;;;;34.97;21.13;;;15.40;99.90;;;;;;5051681;28;20044;-73
2022/09/10 00:50:53;;;;;;;34.67;21.23;;;15.50;99.90;;;;;;5050453;28;20083;-76
2022/09/10 00:53:23;;;;;;;34.92;21.95;;;15.70;99.90;;;;;;5051882;28;20033;-74
2022/09/10 00:55:53;;;;;;;39.00;22.48;;;15.40;99.90;;;;;;5051449;28;20048;-76
2022/09/10 00:58:21;;;;;;;35.80;22.25;;;15.30;99.90;;;;;;5050317;28;20084;-74
2022/09/10 01:00:47;;;;;;;36.55;22.50;;;15.40;99.90;;;;;;5051649;28;20051;-76
2022/09/10 01:03:14;;;;;;;;;;;15.50;99.90;;;;;;5034170;28;20052;-75
2022/09/10 01:05:44;;;;;;;40.35;21.75;;;15.30;99.90;;;;;;5051358;28;20365;-75
2022/09/10 01:08:17;;;;;;;37.47;21.95;;;15.40;99.90;;;;;;5051391;28;20049;-75
2022/09/10 01:11:10;;;;;;;37.35;22.38;;;15.20;99.90;;;;;;5051500;28;20051;-74
2022/09/10 01:13:51;;;;;;;39.35;22.45;;;15.30;99.90;;;;;;5051188;28;20084;-75
2022/09/10 01:16:22;;;;;;;37.08;22.60;;;15.30;99.90;;;;;;5051656;28;20132;-74
2022/09/10 01:18:51;;;;;;;38.50;23.02;;;15.50;99.90;;;;;;5051573;28;20124;-73
2022/09/10 01:21:41;;;;;;;37.38;22.27;;;15.00;99.90;;;;;;5051328;28;20044;-74
2022/09/10 01:24:32;;;;;;;41.40;22.77;;;15.50;99.90;;;;;;5051130;28;20051;-74
2022/09/10 01:27:23;;;;;;;33.70;21.83;;;15.50;99.90;;;;;;5050965;28;20155;-75
2022/09/10 01:29:57;;;;;;;35.08;21.58;;;15.30;99.90;;;;;;5055450;28;20057;-75
2022/09/10 01:32:30;;;;;;;38.08;22.58;;;15.20;99.90;;;;;;5055303;28;20056;-74
2022/09/10 01:35:13;;;;;;;36.15;20.90;;;15.20;99.90;;;;;;5055603;28;20053;-76
2022/09/10 01:37:42;;;;;;;44.47;22.75;;;15.40;99.90;;;;;;5055416;28;20060;-74
2022/09/10 01:40:09;;;;;;;35.80;21.75;;;15.10;99.90;;;;;;5055396;28;20049;-75
2022/09/10 01:42:38;;;;;;;39.90;22.40;;;15.40;99.90;;;;;;5053597;28;20061;-76
2022/09/10 01:45:05;;;;;;;34.70;21.52;;;15.40;99.90;;;;;;5055299;28;20049;-75
2022/09/10 01:47:34;;;;;;;35.75;22.27;;;15.70;99.90;;;;;;5055409;28;20084;-76
2022/09/10 01:50:31;;;;;;;37.90;24.23;;;15.70;99.90;;;;;;5054957;28;20045;-74
2022/09/10 01:53:00;;;;;;;;;;;15.20;99.90;;;;;;5023085;28;20049;-74
2022/09/10 01:55:43;;;;;;;39.22;22.90;;;15.60;99.90;;;;;;5054405;28;20388;-76
2022/09/10 01:58:18;;;;;;;42.58;22.83;;;15.10;99.90;;;;;;5054407;28;20045;-74
2022/09/10 02:01:03;;;;;;;41.33;24.08;;;15.60;99.90;;;;;;5054472;28;20057;-75
2022/09/10 02:03:30;;;;;;;43.13;23.95;;;15.40;99.90;;;;;;5054654;28;20041;-75
2022/09/10 02:05:58;;;;;;;42.53;24.55;;;15.30;99.90;;;;;;5053480;28;20102;-77
2022/09/10 02:08:29;;;;;;;48.47;24.75;;;15.40;99.90;;;;;;5054681;28;20551;-75
2022/09/10 02:10:58;;;;;;;48.97;24.65;;;15.40;99.90;;;;;;5054368;28;20481;-76
2022/09/10 02:13:26;;;;;;;46.72;26.95;;;15.40;99.90;;;;;;5036388;28;20041;-73
2022/09/10 02:15:52;;;;;;;43.88;24.08;;;15.50;99.90;;;;;;5053641;28;20048;-74
2022/09/10 02:18:19;;;;;;;43.95;25.50;;;15.20;99.90;;;;;;5054719;28;20053;-75
2022/09/10 02:20:48;;;;;;;55.35;26.80;;;15.80;99.90;;;;;;5036638;28;20064;-74
2022/09/10 02:23:17;;;;;;;48.13;27.42;;;15.30;99.90;;;;;;5053592;28;20095;-75
2022/09/10 02:25:43;;;;;;;49.45;27.67;;;15.30;99.90;;;;;;5053083;28;20049;-74
2022/09/10 02:28:08;;;;;;;;;;;15.40;99.90;;;;;;5053781;28;20052;-77
2022/09/10 02:30:34;;;;;;;52.53;26.25;;;15.30;99.90;;;;;;5086721;28;19924;-75
2022/09/10 02:33:00;;;;;;;;;;;15.50;99.90;;;;;;5053519;28;20098;-74
2022/09/10 02:35:25;;;;;;;48.50;25.08;;;15.60;99.90;;;;;;5054180;28;20262;-73
2022/09/10 02:37:52;;;;;;;;;;;15.50;99.90;;;;;;5053540;28;20131;-77
2022/09/10 02:40:18;;;;;;;43.75;26.35;;;15.50;99.90;;;;;;5069539;28;19995;-75
2022/09/10 02:42:45;;;;;;;54.55;28.00;;;15.30;99.90;;;;;;5053032;28;20056;-72
2022/09/10 02:45:12;;;;;;;50.67;27.27;;;15.40;99.90;;;;;;5054010;28;20110;-75
2022/09/10 02:47:38;;;;;;;54.63;27.60;;;15.50;99.90;;;;;;5053020;28;20048;-74
2022/09/10 02:50:05;;;;;;;;;;;15.70;99.90;;;;;;5054362;28;20511;-73
2022/09/10 02:52:32;;;;;;;55.00;27.08;;;15.60;99.90;;;;;;5054067;28;20043;-74
2022/09/10 02:54:58;;;;;;;55.13;30.08;;;15.60;99.90;;;;;;5053363;28;20053;-74
2022/09/10 02:57:25;;;;;;;52.67;29.10;;;15.40;99.90;;;;;;5053763;28;20045;-74
2022/09/10 02:59:52;;;;;;;52.08;29.40;;;15.50;99.90;;;;;;5052769;28;20052;-77
2022/09/10 03:02:19;;;;;;;56.17;29.90;;;15.80;99.90;;;;;;5053400;28;20047;-73
2022/09/10 03:04:45;;;;;;;59.85;30.33;;;15.70;99.90;;;;;;5053397;28;20049;-74
2022/09/10 03:07:11;;;;;;;;;;;15.40;99.90;;;;;;5052696;28;20457;-77
2022/09/10 03:09:39;;;;;;;55.95;29.77;;;15.40;99.90;;;;;;5053267;28;19975;-76
2022/09/10 03:12:06;;;;;;;51.45;29.00;;;15.40;99.90;;;;;;5052569;28;20057;-73
2022/09/10 03:14:33;;;;;;;53.80;29.73;;;15.40;99.90;;;;;;5053518;28;20098;-73
2022/09/10 03:16:59;;;;;;;57.65;29.60;;;15.50;99.90;;;;;;5053135;28;20056;-73
2022/09/10 03:19:24;;;;;;;;;;;17.70;99.90;;;;;;5053658;28;20072;-72
2022/09/10 03:21:51;;;;;;;59.88;31.08;;;15.40;99.90;;;;;;5053350;28;19968;-72
2022/09/10 03:24:18;;;;;;;60.47;31.95;;;15.50;99.90;;;;;;5053238;28;20052;-73
2022/09/10 03:26:44;;;;;;;56.90;31.63;;;15.50;99.90;;;;;;5053362;28;20063;-74
2022/09/10 03:29:14;;;;;;;52.50;30.02;;;15.50;99.90;;;;;;5053259;28;20392;-72
2022/09/10 03:31:41;;;;;;;55.95;31.35;;;15.20;99.90;;;;;;5052712;28;20061;-74
2022/09/10 03:34:09;;;;;;;59.75;30.98;;;15.10;99.90;;;;;;5053078;28;20072;-76
2022/09/10 03:36:34;;;;;;;58.92;31.90;;;15.30;99.90;;;;;;5052668;28;20041;-75
2022/09/10 03:39:00;;;;;;;;;;;15.40;99.90;;;;;;5052070;28;20055;-74
2022/09/10 03:41:27;;;;;;;53.75;28.73;;;15.50;99.90;;;;;;5051531;28;19921;-73
2022/09/10 03:43:54;;;;;;;55.58;29.52;;;15.10;99.90;;;;;;5052872;28;20656;-73
2022/09/10 03:46:21;;;;;;;53.00;30.08;;;15.30;99.90;;;;;;5051764;28;20404;-73
2022/09/10 03:48:47;;;;;;;56.90;29.55;;;15.60;99.90;;;;;;5051485;28;20041;-74
2022/09/10 03:51:14;;;;;;;;;;;15.30;99.90;;;;;;5052831;28;20045;-72
2022/09/10 03:53:40;;;;;;;;;;;15.00;99.90;;;;;;5052742;28;20431;-75
2022/09/10 03:56:07;;;;;;;51.47;27.30;;;15.30;99.90;;;;;;5051394;28;19928;-75
2022/09/10 03:58:33;;;;;;;52.58;29.00;;;15.30;99.90;;;;;;5035289;28;20107;-75
2022/09/10 04:00:59;;;;;;;54.05;29.23;;;15.40;99.90;;;;;;5035198;28;20144;-76
2022/09/10 04:03:24;;;;;;;;;;;15.20;99.90;;;;;;5052832;28;20060;-76
2022/09/10 04:05:50;;;;;;;50.45;29.63;;;15.10;99.90;;;;;;5052364;28;20323;-74
2022/09/10 04:08:16;;;;;;;;;;;15.60;99.90;;;;;;5052439;28;20127;-74
2022/09/10 04:10:43;;;;;;;57.38;30.63;;;15.20;99.90;;;;;;5052215;28;20444;-75
2022/09/10 04:13:09;;;;;;;55.10;31.63;;;15.40;99.90;;;;;;5034383;28;20049;-76
2022/09/10 04:15:36;;;;;;;58.30;31.92;;;15.30;99.90;;;;;;5051944;28;20457;-73
2022/09/10 04:18:02;;;;;;;51.92;30.33;;;15.20;99.90;;;;;;5051969;28;20048;-74
2022/09/10 04:20:28;;;;;;;58.08;32.50;;;15.30;99.90;;;;;;5052139;28;20489;-74
2022/09/10 04:22:55;;;;;;;;;;;15.30;99.90;;;;;;5052100;28;20051;-74
2022/09/10 04:25:21;;;;;;;59.50;31.05;;;15.20;99.90;;;;;;5050993;28;19932;-74
2022/09/10 04:27:47;;;;;;;;;;;15.00;99.90;;;;;;5052416;28;20394;-73
2022/09/10 04:30:13;;;;;;;60.28;31.27;;;15.40;99.90;;;;;;5051723;28;19936;-75
2022/09/10 04:32:39;;;;;;;;;;;15.00;99.90;;;;;;5051174;28;20060;-74
2022/09/10 04:35:05;;;;;;;57.90;29.25;;;14.90;99.90;;;;;;5051614;28;20586;-74
2022/09/10 04:37:31;;;;;;;54.80;31.40;;;15.30;99.90;;;;;;5050718;28;20099;-74
2022/09/10 04:39:57;;;;;;;62.67;31.40;;;14.90;99.90;;;;;;5051652;28;20048;-74
2022/09/10 04:42:23;;;;;;;;;;;15.20;99.90;;;;;;5052253;28;20051;-73
2022/09/10 04:44:49;;;;;;;57.55;31.98;;;15.30;99.90;;;;;;5052007;28;19924;-74
2022/09/10 04:47:15;;;;;;;56.78;31.20;;;15.00;99.90;;;;;;5051655;28;20049;-75
2022/09/10 04:49:42;;;;;;;61.13;33.13;;;15.30;99.90;;;;;;5050629;28;20469;-74
2022/09/10 04:52:12;;;;;;;54.58;30.73;;;14.90;99.90;;;;;;5051005;28;20098;-73
2022/09/10 04:54:38;;;;;;;59.08;31.75;;;15.00;99.90;;;;;;5051615;28;20037;-73
2022/09/10 04:57:05;;;;;;;62.15;33.03;;;15.10;99.90;;;;;;5051227;28;20509;-74
2022/09/10 04:59:31;;;;;;;61.03;33.45;;;15.00;99.90;;;;;;5051430;28;20045;-73
2022/09/10 05:01:56;;;;;;;;;;;14.90;99.90;;;;;;5050218;28;20067;-73
2022/09/10 05:04:23;;;;;;;63.65;32.42;;;15.40;99.90;;;;;;5050898;28;19928;-76
2022/09/10 05:06:49;;;;;;;56.03;31.52;;;15.20;99.90;;;;;;5051210;28;20049;-75
2022/09/10 05:09:19;;;;;;;58.00;30.83;;;16.10;99.90;;;;;;5051395;28;20060;-72
2022/09/10 05:11:48;;;;;;;60.25;32.67;;;15.20;99.90;;;;;;5051337;28;20095;-74
2022/09/10 05:14:15;;;;;;;68.57;30.95;;;15.30;99.90;;;;;;5051398;28;20064;-74
2022/09/10 05:16:42;;;;;;;57.95;31.38;;;15.00;99.90;;;;;;5050083;28;20053;-72
2022/09/10 05:19:07;;;;;;;63.88;31.98;;;15.00;99.90;;;;;;5051026;28;20048;-73
2022/09/10 05:21:33;;;;;;;;;;;15.30;99.90;;;;;;5051174;28;20068;-74
2022/09/10 05:23:59;;;;;;;60.45;31.83;;;15.20;99.90;;;;;;5050193;28;19921;-73
2022/09/10 05:26:26;;;;;;;;;;;15.30;99.90;;;;;;5051754;28;20056;-75
2022/09/10 05:28:52;;;;;;;64.93;33.83;;;15.00;99.90;;;;;;5050919;28;19921;-73
2022/09/10 05:31:20;;;;;;;;;;;15.50;99.90;;;;;;5051915;28;20067;-74
2022/09/10 05:33:46;;;;;;;58.25;32.10;;;15.50;99.90;;;;;;5032897;28;19927;-74
2022/09/10 05:36:12;;;;;;;;;;;16.30;99.90;;;;;;5052138;28;20392;-74
2022/09/10 05:38:38;;;;;;;60.17;32.60;;;15.40;99.90;;;;;;5051062;28;19944;-74
2022/09/10 05:41:05;;;;;;;;;;;15.20;99.90;;;;;;5033720;28;20477;-72
2022/09/10 05:43:31;;;;;;;54.58;29.95;;;15.30;99.90;;;;;;5051377;28;19930;-75
2022/09/10 05:45:57;;;;;;;;;;;15.50;99.90;;;;;;5051363;28;20045;-73
2022/09/10 05:48:22;;;;;;;59.85;33.28;;;15.50;99.90;;;;;;5050737;28;19927;-72
2022/09/10 05:50:48;;;;;;;;;;;15.50;99.90;;;;;;5051549;28;20126;-72
2022/09/10 05:53:14;;;;;;;58.58;32.00;;;15.30;99.90;;;;;;5050593;28;19971;-73
2022/09/10 05:55:39;;;;;;;;;;;15.50;99.90;;;;;;5049904;28;20045;-73
2022/09/10 05:58:05;;;;;;;60.83;31.65;;;15.30;99.90;;;;;;5066533;28;20365;-73
2022/09/10 06:00:30;;;;;;;;;;;15.20;99.90;;;;;;5051719;28;20496;-74
2022/09/10 06:02:56;;;;;;;66.93;33.78;;;15.50;99.90;;;;;;5050567;28;20690;-72
2022/09/10 06:05:22;;;;;;;;;;;15.40;99.90;;;;;;5046116;28;20133;-73
2022/09/10 06:07:49;;;;;;;61.30;32.58;;;15.40;99.90;;;;;;5047922;28;19925;-73
2022/09/10 06:10:15;;;;;;;59.67;34.78;;;15.50;99.90;;;;;;5048554;28;20118;-73
2022/09/10 06:12:45;;;;;;;60.90;33.47;;;15.20;99.90;;;;;;5048364;28;20179;-73
2022/09/10 06:15:11;;;;;;;60.70;34.65;;;15.40;99.90;;;;;;5051566;28;20045;-73
2022/09/10 06:17:37;;;;;;;;;;;15.50;99.90;;;;;;5053100;28;20071;-76
2022/09/10 06:20:03;;;;;;;55.95;33.67;;;15.70;99.90;;;;;;5050707;28;20369;-74
2022/09/10 06:22:29;;;;;;;57.55;33.97;;;15.50;99.90;;;;;;5052813;28;20044;-72
2022/09/10 06:24:55;;;;;;;;;;;15.70;99.90;;;;;;5051790;28;20057;-73
2022/09/10 06:27:22;;;;;;;58.20;32.75;;;15.60;99.90;;;;;;5051933;28;19925;-73
2022/09/10 06:29:48;;;;;;;63.53;34.10;;;15.80;99.90;;;;;;5051444;28;20481;-71
2022/09/10 06:32:14;;;;;;;58.88;34.15;;;15.70;99.90;;;;;;5052203;28;20052;-70
2022/09/10 06:34:39;;;;;;;;;;;15.50;99.90;;;;;;5052249;28;20057;-74
2022/09/10 06:37:05;;;;;;;57.40;32.60;;;15.80;99.90;;;;;;5047823;28;19975;-73
2022/09/10 06:39:31;;;;;;;;;;;15.50;99.90;;;;;;5034283;28;20136;-73
2022/09/10 06:41:56;;;;;;;58.00;33.13;;;15.60;99.90;;;;;;5050136;28;19932;-72
2022/09/10 06:44:22;;;;;;;;;;;15.90;99.90;;;;;;5052573;28;20044;-72
2022/09/10 06:46:48;;;;;;;54.05;32.65;;;15.90;99.90;;;;;;5051192;28;19920;-72
2022/09/10 06:49:14;;;;;;;;;;;15.90;99.90;;;;;;5051405;28;20059;-70
2022/09/10 06:51:40;;;;;;;56.15;32.33;;;15.70;99.90;;;;;;5052518;28;20277;-70
2022/09/10 06:54:06;;;;;;;;;;;15.70;99.90;;;;;;5052510;28;20118;-72
2022/09/10 06:56:32;;;;;;;55.22;29.77;;;16.00;99.90;;;;;;5050542;28;19924;-73
2022/09/10 06:58:58;;;;;;;58.28;33.28;;;16.00;99.90;;;;;;5051766;28;20084;-72
2022/09/10 07:01:24;;;;;;;;;;;15.80;99.90;;;;;;5052133;28;20112;-73
2022/09/10 07:03:55;;;;;;;55.63;30.77;;;16.20;99.90;;;;;;5051491;28;20337;-73
2022/09/10 07:06:22;;;;;;;50.20;31.45;;;16.30;99.90;;;;;;5051875;28;20045;-73
2022/09/10 07:08:48;;;;;;;51.70;29.17;;;16.40;99.90;;;;;;5051731;28;20539;-75
2022/09/10 07:11:15;;;;;;;52.00;31.25;;;16.00;99.90;;;;;;5052428;28;20045;-72
2022/09/10 07:13:42;;;;;;;44.00;29.42;;;16.00;99.90;;;;;;5035595;28;20397;-71
2022/09/10 07:16:08;;;;;;;45.13;27.65;;;16.30;99.90;;;;;;5050273;28;20056;-78
2022/09/10 07:18:34;;;;;;;45.13;29.15;;;16.10;99.90;;;;;;5050571;28;20140;-72
2022/09/10 07:21:06;;;;;;;;;;;16.70;99.90;;;;;;5052038;28;20127;-73
2022/09/10 07:23:32;;;;;;;41.83;27.42;;;16.50;99.90;;;;;;5051372;28;19979;-75
2022/09/10 07:26:09;;;;;;;;;;;16.40;99.90;;;;;;5049892;28;20401;-71
2022/09/10 07:28:35;;;;;;;40.03;26.20;;;16.70;99.90;;;;;;5031412;28;19936;-73
2022/09/10 07:31:15;;;;;;;42.55;25.63;;;16.50;99.90;;;;;;5032016;28;20049;-73
2022/09/10 07:33:42;;;;;;;37.90;26.38;;;16.70;99.90;;;;;;5033001;28;20107;-72
2022/09/10 07:36:09;;;;;;;37.53;25.75;;;16.50;99.90;;;;;;5032876;28;20213;-71
2022/09/10 07:38:36;;;;;;;42.42;25.80;;;16.60;99.90;;;;;;5032690;28;20054;-73
2022/09/10 07:41:02;;;;;;;44.15;25.55;;;16.70;99.90;;;;;;5032656;28;20648;-72
2022/09/10 07:43:28;;;;;;;40.00;26.02;;;16.90;99.90;;;;;;5031655;28;20552;-71
2022/09/10 07:45:54;;;;;;;42.30;26.42;;;16.80;99.90;;;;;;5032433;28;20049;-72
2022/09/10 07:48:20;;;;;;;;;;;16.80;99.90;;;;;;5032368;28;20088;-74
2022/09/10 07:50:45;;;;;;;41.70;26.70;;;16.70;99.90;;;;;;5031076;28;19932;-72
2022/09/10 07:53:12;;;;;;;43.15;25.52;;;16.50;99.90;;;;;;5031200;28;20568;-72
2022/09/10 07:55:38;;;;;;;42.05;25.88;;;16.70;99.90;;;;;;5032294;28;20049;-73
2022/09/10 07:58:05;;;;;;;40.80;26.77;;;16.90;99.90;;;;;;5032435;28;20080;-71
2022/09/10 08:00:30;;;;;;;39.53;25.95;;;16.60;99.90;;;;;;5032015;28;20077;-71
2022/09/10 08:02:56;;;;;;;;;;;16.60;99.90;;;;;;5032649;28;20100;-73
2022/09/10 08:05:22;;;;;;;40.90;25.15;;;16.50;99.90;;;;;;5031226;28;19978;-72
2022/09/10 08:07:50;;;;;;;39.35;25.90;;;16.50;99.90;;;;;;5031471;28;20046;-71
2022/09/10 08:10:16;;;;;;;38.85;25.30;;;16.60;99.90;;;;;;5031897;28;20050;-71
2022/09/10 08:12:42;;;;;;;;;;;16.90;99.90;;;;;;5032428;28;20042;-74
2022/09/10 08:15:09;;;;;;;37.95;25.60;;;17.10;99.90;;;;;;5031728;28;20344;-71
2022/09/10 08:17:35;;;;;;;37.65;25.90;;;16.90;99.90;;;;;;5031681;28;20508;-71
2022/09/10 08:20:06;;;;;;;38.05;25.40;;;16.60;99.90;;;;;;5032312;28;20049;-72
2022/09/10 08:22:33;;;;;;;39.60;24.80;;;16.90;99.90;;;;;;5031592;28;20041;-72
2022/09/10 08:24:59;;;;;;;38.30;25.73;;;16.90;99.90;;;;;;5031106;28;20041;-72
2022/09/10 08:27:25;;;;;;;37.35;24.77;;;17.10;99.90;;;;;;5031524;28;20049;-72
2022/09/10 08:29:52;;;;;;;;;;;17.10;99.90;;;;;;5032150;28;20069;-71
2022/09/10 08:32:17;;;;;;;38.60;26.00;;;17.10;99.90;;;;;;5031536;28;20020;-74
2022/09/10 08:34:43;;;;;;;39.65;26.13;;;17.10;99.90;;;;;;5029794;28;20144;-73
2022/09/10 08:37:10;;;;;;;36.75;23.40;;;17.00;99.90;;;;;;5031591;28;20049;-72
2022/09/10 08:39:35;;;;;;;33.80;24.58;;;17.20;99.90;;;;;;5031123;28;20507;-72
2022/09/10 08:42:06;;;;;;;;;;;17.80;99.90;;;;;;5031673;28;20120;-71
2022/09/10 08:44:42;;;;;;;37.97;24.70;;;16.70;99.90;;;;;;5032027;28;20059;-71
2022/09/10 08:47:52;;;;;;;36.60;23.92;;;16.80;99.90;;;;;;5032456;28;20053;-73
2022/09/10 08:50:23;;;;;;;34.78;23.60;;;16.90;99.90;;;;;;5032347;28;20053;-73
2022/09/10 08:53:02;;;;;;;33.28;22.92;;;17.00;99.90;;;;;;5031189;28;20655;-71
2022/09/10 08:55:34;;;;;;;35.08;24.88;;;17.00;99.90;;;;;;5031560;28;20096;-72
2022/09/10 08:58:06;;;;;;;37.88;23.70;;;17.00;99.90;;;;;;5032067;28;20045;-73
2022/09/10 09:00:36;;;;;;;35.90;23.48;;;17.00;99.90;;;;;;5031330;28;20052;-71
2022/09/10 09:03:21;;;;;;;34.63;24.85;;;16.90;99.90;;;;;;5031596;28;20041;-71
2022/09/10 09:05:56;;;;;;;36.75;24.48;;;17.00;99.90;;;;;;5031211;28;20046;-71
2022/09/10 09:08:26;;;;;;;39.65;25.20;;;17.30;99.90;;;;;;5031540;28;20140;-71
2022/09/10 09:11:25;;;;;;;36.50;25.15;;;17.10;99.90;;;;;;5030892;28;20041;-77
2022/09/10 09:14:02;;;;;;;40.05;24.92;;;16.70;99.90;;;;;;5031852;28;20049;-72
2022/09/10 09:16:53;;;;;;;36.13;24.10;;;16.70;99.90;;;;;;5031150;28;20064;-70
2022/09/10 09:19:33;;;;;;;38.13;24.55;;;17.10;99.90;;;;;;5031415;28;20064;-71
2022/09/10 09:22:27;;;;;;;38.97;24.77;;;16.70;99.90;;;;;;5031189;28;20052;-72
2022/09/10 09:24:56;;;;;;;40.92;24.52;;;17.20;99.90;;;;;;5031733;28;20100;-75
2022/09/10 09:27:26;;;;;;;41.33;25.15;;;16.90;99.90;;;;;;5030466;28;20465;-71
2022/09/10 09:30:02;;;;;;;38.67;25.02;;;17.00;99.90;;;;;;5031370;28;20397;-70
2022/09/10 09:32:30;;;;;;;;;;;17.00;99.90;;;;;;5032241;28;20156;-72
2022/09/10 09:35:31;;;;;;;41.63;25.40;;;17.30;99.90;;;;;;5031893;28;19925;-69
2022/09/10 09:38:05;;;;;;;40.17;25.33;;;17.00;99.90;;;;;;5031799;28;20054;-70
2022/09/10 09:40:45;;;;;;;38.30;25.15;;;17.60;99.90;;;;;;5031555;28;20394;-70
2022/09/10 09:43:14;;;;;;;36.40;24.75;;;17.30;99.90;;;;;;5031356;28;20431;-69
2022/09/10 09:45:42;;;;;;;39.70;23.63;;;17.70;99.90;;;;;;5030912;28;20458;-69
2022/09/10 09:48:13;;;;;;;36.03;24.48;;;17.70;99.90;;;;;;5031764;28;20819;-70
2022/09/10 09:50:42;;;;;;;37.58;23.45;;;17.70;99.90;;;;;;5035726;28;20132;-71
2022/09/10 09:53:22;;;;;;;36.63;24.70;;;17.80;99.90;;;;;;5035569;28;20041;-70
2022/09/10 09:55:59;;;;;;;44.13;24.42;;;17.90;99.90;;;;;;5034651;28;20132;-72
2022/09/10 09:58:27;;;;;;;34.17;22.88;;;18.10;99.90;;;;;;5034775;28;20041;-70
2022/09/10 10:00:54;;;;;;;34.78;23.02;;;18.00;99.90;;;;;;5034681;28;20052;-70
2022/09/10 10:03:24;;;;;;;36.10;23.17;;;18.10;99.90;;;;;;5034677;28;20103;-71
2022/09/10 10:06:06;;;;;;;33.40;22.33;;;18.10;99.90;;;;;;5033847;28;20053;-71
2022/09/10 10:08:39;;;;;;;34.03;21.85;;;18.40;99.90;;;;;;5033571;28;20474;-69
2022/09/10 10:11:06;;;;;;;28.00;21.10;;;18.30;99.90;;;;;;5034535;28;20425;-70
2022/09/10 10:13:40;;;;;;;25.33;19.52;;;18.30;99.90;;;;;;5034289;28;20095;-71
2022/09/10 10:16:22;;;;;;;30.65;20.20;;;18.30;99.90;;;;;;5035100;28;20055;-69
2022/09/10 10:18:48;;;;;;;26.80;18.33;;;18.20;99.90;;;;;;5035121;28;20050;-69
2022/09/10 10:21:18;;;;;;;27.80;19.20;;;18.40;99.90;;;;;;5034379;28;20057;-70
2022/09/10 10:23:45;;;;;;;24.67;18.33;;;18.60;99.90;;;;;;5033976;28;20053;-68
2022/09/10 10:26:19;;;;;;;25.35;17.50;;;18.70;99.90;;;;;;5034943;28;20053;-72
2022/09/10 10:28:47;;;;;;;26.42;17.50;;;18.50;99.90;;;;;;5050285;28;20060;-70
2022/09/10 10:31:14;;;;;;;27.98;17.70;;;18.60;99.90;;;;;;5053509;28;20068;-70
2022/09/10 10:34:14;;;;;;;30.60;18.05;;;18.80;99.90;;;;;;5053888;28;20049;-70
2022/09/10 10:37:06;;;;;;;30.52;17.50;;;18.80;99.90;;;;;;5054287;28;20059;-70
2022/09/10 10:39:49;;;;;;;25.23;17.55;;;18.80;99.90;;;;;;5053970;28;20083;-71
2022/09/10 10:42:39;;;;;;;23.67;16.77;;;19.30;99.90;;;;;;5054431;28;20400;-70
2022/09/10 10:45:21;;;;;;;23.48;17.33;;;19.00;99.90;;;;;;5053551;28;20056;-69
2022/09/10 10:47:54;;;;;;;21.23;16.30;;;19.40;99.90;;;;;;5054592;28;20060;-73
2022/09/10 10:50:46;;;;;;;24.95;17.73;;;19.50;99.90;;;;;;5054351;28;20057;-70
2022/09/10 10:53:21;;;;;;;25.27;16.50;;;19.50;99.90;;;;;;5054198;28;20048;-69
2022/09/10 10:55:55;;;;;;;29.33;16.83;;;19.30;99.90;;;;;;5053830;28;20045;-69
2022/09/10 10:58:48;;;;;;;22.48;16.98;;;19.40;99.90;;;;;;5054134;28;20056;-70
2022/09/10 11:01:28;;;;;;;22.67;17.55;;;19.20;99.90;;;;;;5054218;28;20081;-70
2022/09/10 11:04:12;;;;;;;24.50;16.65;;;19.40;99.90;;;;;;5054072;28;20087;-71
2022/09/10 11:06:43;;;;;;;23.92;17.00;;;19.10;99.90;;;;;;5053916;28;20057;-69
2022/09/10 11:09:24;;;;;;;24.90;16.65;;;19.20;99.90;;;;;;5053940;28;20045;-70
2022/09/10 11:12:00;;;;;;;29.95;18.48;;;19.60;99.90;;;;;;5052624;28;20056;-70
2022/09/10 11:14:47;;;;;;;24.65;17.25;;;19.50;99.90;;;;;;5054043;28;20370;-69
2022/09/10 11:17:21;;;;;;;27.67;18.02;;;19.40;99.90;;;;;;5053750;28;20049;-71
2022/09/10 11:20:00;;;;;;;26.58;18.05;;;19.50;99.90;;;;;;5053737;28;20045;-70
2022/09/10 11:22:34;;;;;;;20.40;13.75;;;19.60;99.90;;;;;;5053554;28;20095;-67
2022/09/10 11:25:18;;;;;;;17.25;11.68;;;19.80;99.90;;;;;;5053589;28;20494;-71
2022/09/10 11:27:53;;;;;;;17.75;10.77;;;20.00;99.90;;;;;;5053626;28;20063;-68
2022/09/10 11:30:19;;;;;;;16.95;10.70;;;20.30;99.90;;;;;;5053287;28;20061;-68
2022/09/10 11:33:22;;;;;;;15.98;12.13;;;20.60;99.90;;;;;;5053607;28;20052;-68
2022/09/10 11:36:04;;;;;;;16.35;11.32;;;20.50;99.90;;;;;;5041553;28;20394;-67
2022/09/10 11:38:48;;;;;;;18.98;11.63;;;20.80;99.90;;;;;;5068495;28;20785;-68
2022/09/10 11:41:30;;;;;;;16.15;11.90;;;21.30;99.90;;;;;;5052633;28;20062;-66
2022/09/10 11:44:30;;;;;;;17.55;11.32;;;21.20;99.90;;;;;;5052405;28;20041;-72
2022/09/10 11:47:10;;;;;;;13.80;11.02;;;20.60;99.90;;;;;;5051966;28;20548;-71
2022/09/10 11:49:42;;;;;;;11.02;9.43;;;20.60;99.90;;;;;;5052807;28;20174;-70
2022/09/10 11:52:10;;;;;;;13.93;8.63;;;20.50;99.90;;;;;;5052170;28;20103;-68
2022/09/10 11:54:37;;;;;;;10.45;8.60;;;20.90;99.90;;;;;;5052144;28;20068;-68
2022/09/10 11:57:37;;;;;;;12.80;8.75;;;20.70;99.90;;;;;;5051579;28;20057;-68
2022/09/10 12:00:15;;;;;;;12.55;8.80;;;20.80;99.90;;;;;;5051137;28;20056;-67
2022/09/10 12:03:01;;;;;;;11.15;8.25;;;21.10;99.90;;;;;;5052140;28;20565;-70
2022/09/10 12:05:53;;;;;;;11.35;7.85;;;21.60;99.90;;;;;;5051915;28;20053;-68
2022/09/10 12:08:44;;;;;;;12.73;9.80;;;21.70;99.90;;;;;;5052085;28;20049;-68
2022/09/10 12:11:13;;;;;;;14.18;9.65;;;22.00;99.90;;;;;;5051531;28;20084;-67
2022/09/10 12:13:40;;;;;;;20.08;10.18;;;22.20;99.90;;;;;;5051586;28;20127;-69
2022/09/10 12:16:27;;;;;;;12.45;8.75;;;21.90;99.90;;;;;;5034735;28;20106;-70
2022/09/10 12:18:53;;;;;;;;;;;21.80;99.90;;;;;;5053152;28;20057;-69
2022/09/10 12:21:28;;;;;;;12.88;8.80;;;21.90;99.90;;;;;;5052223;28;19936;-65
2022/09/10 12:23:55;;;;;;;13.27;8.52;;;22.00;99.90;;;;;;5052765;28;20045;-67
2022/09/10 12:26:21;;;;;;;13.05;8.98;;;22.20;99.90;;;;;;5052451;28;20492;-68
2022/09/10 12:28:48;;;;;;;10.45;8.48;;;22.10;99.90;;;;;;5052389;28;20088;-68
2022/09/10 12:31:21;;;;;;;10.27;7.95;;;22.10;99.90;;;;;;5052658;28;20151;-66
2022/09/10 12:33:47;;;;;;;13.27;7.82;;;22.20;99.90;;;;;;5052275;28;20132;-67
2022/09/10 12:36:24;;;;;;;11.80;7.28;;;22.10;99.90;;;;;;5051679;28;20127;-66
2022/09/10 12:39:15;;;;;;;15.45;10.05;;;22.40;99.90;;;;;;5051919;28;20555;-68
2022/09/10 12:41:40;;;;;;;17.30;12.82;;;22.20;99.90;;;;;;5052447;28;20118;-69
2022/09/10 12:44:36;;;;;;;18.30;13.60;;;22.00;99.90;;;;;;5052190;28;20076;-69
2022/09/10 12:47:14;;;;;;;21.65;15.60;;;21.90;99.90;;;;;;5046630;28;20080;-68
2022/09/10 12:49:49;;;;;;;25.10;17.65;;;21.10;99.90;;;;;;5050832;28;20045;-71
2022/09/10 12:52:30;;;;;;;23.02;17.98;;;21.10;99.90;;;;;;5051238;28;20447;-69
2022/09/10 12:55:35;;;;;;;24.75;19.13;;;20.60;99.90;;;;;;5050558;28;20049;-70
2022/09/10 12:58:26;;;;;;;28.02;19.55;;;20.10;99.90;;;;;;5031236;28;20065;-69
2022/09/10 13:00:55;;;;;;;26.25;19.85;;;20.10;99.90;;;;;;5031237;28;20053;-68